sensor_id;sensor_type;location;lat;lon;timestamp;P1;durP1;ratioP1;P2;durP2;ratioP2
79464;SDS011;68932;47.410;8.232;2024-02-28T00:01:01;24.90;;;14.80;;
79464;SDS011;68932;47.410;8.232;2024-02-28T00:03:30;21.40;;;13.20;;
79464;SDS011;68932;47.410;8.232;2024-02-28T00:05:58;23.50;;;14.50;;
79464;SDS011;68932;47.410;8.232;2024-02-28T00:08:26;24.80;;;14.00;;
79464;SDS011;68932;47.410;8.232;2024-02-28T00:10:54;23.20;;;14.20;;
79464;SDS011;68932;47.410;8.232;2024-02-28T00:13:22;22.20;;;14.80;;
79464;SDS011;68932;47.410;8.232;2024-02-28T00:15:51;25.00;;;14.50;;
79464;SDS011;68932;47.410;8.232;2024-02-28T00:18:19;23.20;;;13.30;;
79464;SDS011;68932;47.410;8.232;2024-02-28T00:20:47;23.60;;;14.00;;
79464;SDS011;68932;47.410;8.232;2024-02-28T00:23:15;24.90;;;14.60;;
79464;SDS011;68932;47.410;8.232;2024-02-28T00:25:44;23.90;;;14.40;;
79464;SDS011;68932;47.410;8.232;2024-02-28T00:28:12;23.90;;;14.30;;
79464;SDS011;68932;47.410;8.232;2024-02-28T00:30:40;24.10;;;14.80;;
79464;SDS011;68932;47.410;8.232;2024-02-28T00:33:08;21.90;;;13.40;;
79464;SDS011;68932;47.410;8.232;2024-02-28T00:35:37;21.90;;;13.10;;
79464;SDS011;68932;47.410;8.232;2024-02-28T00:38:06;22.30;;;13.90;;
79464;SDS011;68932;47.410;8.232;2024-02-28T00:40:34;22.60;;;14.20;;
79464;SDS011;68932;47.410;8.232;2024-02-28T00:43:02;20.60;;;13.60;;
79464;SDS011;68932;47.410;8.232;2024-02-28T00:45:30;21.60;;;13.20;;
79464;SDS011;68932;47.410;8.232;2024-02-28T00:47:59;22.50;;;13.80;;
79464;SDS011;68932;47.410;8.232;2024-02-28T00:50:27;22.20;;;13.30;;
79464;SDS011;68932;47.410;8.232;2024-02-28T00:52:55;24.20;;;15.00;;
79464;SDS011;68932;47.410;8.232;2024-02-28T00:55:23;25.30;;;14.90;;
79464;SDS011;68932;47.410;8.232;2024-02-28T00:57:51;23.30;;;14.50;;
79464;SDS011;68932;47.410;8.232;2024-02-28T01:00:20;23.60;;;14.20;;
79464;SDS011;68932;47.410;8.232;2024-02-28T01:02:48;24.50;;;15.10;;
79464;SDS011;68932;47.410;8.232;2024-02-28T01:05:16;21.30;;;13.30;;
79464;SDS011;68932;47.410;8.232;2024-02-28T01:07:44;21.80;;;13.70;;
79464;SDS011;68932;47.410;8.232;2024-02-28T01:10:13;22.30;;;13.80;;
79464;SDS011;68932;47.410;8.232;2024-02-28T01:12:41;23.50;;;14.00;;
79464;SDS011;68932;47.410;8.232;2024-02-28T01:15:10;21.90;;;13.70;;
79464;SDS011;68932;47.410;8.232;2024-02-28T01:17:38;23.20;;;14.00;;
79464;SDS011;68932;47.410;8.232;2024-02-28T01:20:07;22.60;;;13.80;;
79464;SDS011;68932;47.410;8.232;2024-02-28T01:22:36;21.00;;;12.90;;
79464;SDS011;68932;47.410;8.232;2024-02-28T01:25:05;27.40;;;15.10;;
79464;SDS011;68932;47.410;8.232;2024-02-28T01:27:34;23.00;;;14.90;;
79464;SDS011;68932;47.410;8.232;2024-02-28T01:30:02;21.90;;;13.80;;
79464;SDS011;68932;47.410;8.232;2024-02-28T01:32:32;25.30;;;14.40;;
79464;SDS011;68932;47.410;8.232;2024-02-28T01:35:01;23.70;;;14.50;;
79464;SDS011;68932;47.410;8.232;2024-02-28T01:37:30;23.50;;;15.10;;
79464;SDS011;68932;47.410;8.232;2024-02-28T01:39:58;24.10;;;13.90;;
79464;SDS011;68932;47.410;8.232;2024-02-28T01:42:26;20.20;;;13.90;;
79464;SDS011;68932;47.410;8.232;2024-02-28T01:44:55;22.40;;;13.80;;
79464;SDS011;68932;47.410;8.232;2024-02-28T01:47:23;22.20;;;12.60;;
79464;SDS011;68932;47.410;8.232;2024-02-28T01:49:51;22.00;;;13.00;;
79464;SDS011;68932;47.410;8.232;2024-02-28T01:52:19;24.20;;;14.00;;
79464;SDS011;68932;47.410;8.232;2024-02-28T01:54:48;23.30;;;14.30;;
79464;SDS011;68932;47.410;8.232;2024-02-28T01:57:17;21.60;;;13.20;;
79464;SDS011;68932;47.410;8.232;2024-02-28T01:59:45;24.20;;;15.10;;
79464;SDS011;68932;47.410;8.232;2024-02-28T02:02:13;24.10;;;14.30;;
79464;SDS011;68932;47.410;8.232;2024-02-28T02:04:42;22.20;;;13.50;;
79464;SDS011;68932;47.410;8.232;2024-02-28T02:07:10;24.70;;;14.30;;
79464;SDS011;68932;47.410;8.232;2024-02-28T02:09:38;25.50;;;13.90;;
79464;SDS011;68932;47.410;8.232;2024-02-28T02:12:08;23.80;;;13.70;;
79464;SDS011;68932;47.410;8.232;2024-02-28T02:14:37;22.80;;;13.40;;
79464;SDS011;68932;47.410;8.232;2024-02-28T02:17:05;22.40;;;13.50;;
79464;SDS011;68932;47.410;8.232;2024-02-28T02:19:34;23.20;;;14.40;;
79464;SDS011;68932;47.410;8.232;2024-02-28T02:22:02;24.40;;;13.60;;
79464;SDS011;68932;47.410;8.232;2024-02-28T02:24:31;24.20;;;14.10;;
79464;SDS011;68932;47.410;8.232;2024-02-28T02:27:00;22.70;;;14.40;;
79464;SDS011;68932;47.410;8.232;2024-02-28T02:29:28;20.80;;;12.80;;
79464;SDS011;68932;47.410;8.232;2024-02-28T02:31:57;21.30;;;13.80;;
79464;SDS011;68932;47.410;8.232;2024-02-28T02:34:25;27.10;;;14.90;;
79464;SDS011;68932;47.410;8.232;2024-02-28T02:36:53;25.70;;;15.30;;
79464;SDS011;68932;47.410;8.232;2024-02-28T02:39:21;23.10;;;13.50;;
79464;SDS011;68932;47.410;8.232;2024-02-28T02:41:50;24.00;;;13.70;;
79464;SDS011;68932;47.410;8.232;2024-02-28T02:44:18;23.70;;;14.10;;
79464;SDS011;68932;47.410;8.232;2024-02-28T02:46:46;23.40;;;15.40;;
79464;SDS011;68932;47.410;8.232;2024-02-28T02:49:14;24.00;;;14.50;;
79464;SDS011;68932;47.410;8.232;2024-02-28T02:51:42;23.50;;;13.90;;
79464;SDS011;68932;47.410;8.232;2024-02-28T02:54:11;23.90;;;14.20;;
79464;SDS011;68932;47.410;8.232;2024-02-28T02:56:42;21.40;;;12.70;;
79464;SDS011;68932;47.410;8.232;2024-02-28T02:59:10;22.70;;;13.90;;
79464;SDS011;68932;47.410;8.232;2024-02-28T03:01:38;23.80;;;14.10;;
79464;SDS011;68932;47.410;8.232;2024-02-28T03:04:06;21.70;;;14.30;;
79464;SDS011;68932;47.410;8.232;2024-02-28T03:06:35;24.90;;;13.50;;
79464;SDS011;68932;47.410;8.232;2024-02-28T03:09:03;21.90;;;13.20;;
79464;SDS011;68932;47.410;8.232;2024-02-28T03:11:31;23.10;;;14.30;;
79464;SDS011;68932;47.410;8.232;2024-02-28T03:13:59;22.90;;;14.50;;
79464;SDS011;68932;47.410;8.232;2024-02-28T03:16:27;21.70;;;13.60;;
79464;SDS011;68932;47.410;8.232;2024-02-28T03:18:56;21.10;;;13.30;;
79464;SDS011;68932;47.410;8.232;2024-02-28T03:21:24;22.30;;;14.00;;
79464;SDS011;68932;47.410;8.232;2024-02-28T03:23:52;23.40;;;14.10;;
79464;SDS011;68932;47.410;8.232;2024-02-28T03:26:20;23.60;;;13.30;;
79464;SDS011;68932;47.410;8.232;2024-02-28T03:28:48;20.60;;;13.30;;
79464;SDS011;68932;47.410;8.232;2024-02-28T03:31:17;22.50;;;13.90;;
79464;SDS011;68932;47.410;8.232;2024-02-28T03:33:45;21.60;;;13.00;;
79464;SDS011;68932;47.410;8.232;2024-02-28T03:36:13;23.10;;;13.30;;
79464;SDS011;68932;47.410;8.232;2024-02-28T03:38:41;22.60;;;13.30;;
79464;SDS011;68932;47.410;8.232;2024-02-28T03:41:09;24.00;;;14.20;;
79464;SDS011;68932;47.410;8.232;2024-02-28T03:43:38;23.00;;;12.90;;
79464;SDS011;68932;47.410;8.232;2024-02-28T03:46:06;26.00;;;14.60;;
79464;SDS011;68932;47.410;8.232;2024-02-28T03:48:34;20.90;;;12.50;;
79464;SDS011;68932;47.410;8.232;2024-02-28T03:51:02;19.70;;;13.60;;
79464;SDS011;68932;47.410;8.232;2024-02-28T03:53:31;21.50;;;13.20;;
79464;SDS011;68932;47.410;8.232;2024-02-28T03:55:59;23.20;;;13.90;;
79464;SDS011;68932;47.410;8.232;2024-02-28T03:58:27;22.10;;;13.40;;
79464;SDS011;68932;47.410;8.232;2024-02-28T04:00:56;21.40;;;13.00;;
79464;SDS011;68932;47.410;8.232;2024-02-28T04:03:24;21.50;;;13.30;;
79464;SDS011;68932;47.410;8.232;2024-02-28T04:05:52;23.00;;;13.60;;
79464;SDS011;68932;47.410;8.232;2024-02-28T04:08:20;20.40;;;13.40;;
79464;SDS011;68932;47.410;8.232;2024-02-28T04:10:48;23.50;;;12.10;;
79464;SDS011;68932;47.410;8.232;2024-02-28T04:13:17;21.10;;;12.50;;
79464;SDS011;68932;47.410;8.232;2024-02-28T04:15:45;20.50;;;12.60;;
79464;SDS011;68932;47.410;8.232;2024-02-28T04:18:13;20.80;;;12.40;;
79464;SDS011;68932;47.410;8.232;2024-02-28T04:20:41;21.10;;;12.20;;
79464;SDS011;68932;47.410;8.232;2024-02-28T04:23:09;22.00;;;12.80;;
79464;SDS011;68932;47.410;8.232;2024-02-28T04:25:38;20.30;;;12.60;;
79464;SDS011;68932;47.410;8.232;2024-02-28T04:28:06;20.60;;;12.60;;
79464;SDS011;68932;47.410;8.232;2024-02-28T04:30:34;20.50;;;12.40;;
79464;SDS011;68932;47.410;8.232;2024-02-28T04:33:03;21.20;;;12.60;;
79464;SDS011;68932;47.410;8.232;2024-02-28T04:35:31;19.50;;;12.30;;
79464;SDS011;68932;47.410;8.232;2024-02-28T04:37:59;22.00;;;12.80;;
79464;SDS011;68932;47.410;8.232;2024-02-28T04:40:28;21.60;;;12.10;;
79464;SDS011;68932;47.410;8.232;2024-02-28T04:42:56;20.20;;;12.10;;
79464;SDS011;68932;47.410;8.232;2024-02-28T04:45:24;18.40;;;10.20;;
79464;SDS011;68932;47.410;8.232;2024-02-28T04:47:52;21.10;;;12.20;;
79464;SDS011;68932;47.410;8.232;2024-02-28T04:50:21;18.20;;;11.40;;
79464;SDS011;68932;47.410;8.232;2024-02-28T04:52:49;21.80;;;13.20;;
79464;SDS011;68932;47.410;8.232;2024-02-28T04:55:17;19.30;;;11.90;;
79464;SDS011;68932;47.410;8.232;2024-02-28T04:57:46;19.00;;;12.60;;
79464;SDS011;68932;47.410;8.232;2024-02-28T05:00:14;19.50;;;11.20;;
79464;SDS011;68932;47.410;8.232;2024-02-28T05:02:43;17.60;;;10.50;;
79464;SDS011;68932;47.410;8.232;2024-02-28T05:05:11;20.00;;;11.00;;
79464;SDS011;68932;47.410;8.232;2024-02-28T05:07:39;18.70;;;11.10;;
79464;SDS011;68932;47.410;8.232;2024-02-28T05:10:08;18.20;;;11.20;;
79464;SDS011;68932;47.410;8.232;2024-02-28T05:12:36;19.00;;;11.90;;
79464;SDS011;68932;47.410;8.232;2024-02-28T05:15:05;18.70;;;11.80;;
79464;SDS011;68932;47.410;8.232;2024-02-28T05:17:34;21.40;;;11.80;;
79464;SDS011;68932;47.410;8.232;2024-02-28T05:20:03;19.10;;;11.40;;
79464;SDS011;68932;47.410;8.232;2024-02-28T05:22:32;17.70;;;11.70;;
79464;SDS011;68932;47.410;8.232;2024-02-28T05:25:00;16.20;;;10.90;;
79464;SDS011;68932;47.410;8.232;2024-02-28T05:27:28;20.80;;;13.20;;
79464;SDS011;68932;47.410;8.232;2024-02-28T05:29:57;15.00;;;10.00;;
79464;SDS011;68932;47.410;8.232;2024-02-28T05:32:25;15.30;;;9.90;;
79464;SDS011;68932;47.410;8.232;2024-02-28T05:34:53;15.50;;;9.00;;
79464;SDS011;68932;47.410;8.232;2024-02-28T05:37:21;15.50;;;9.30;;
79464;SDS011;68932;47.410;8.232;2024-02-28T05:39:49;16.20;;;9.50;;
79464;SDS011;68932;47.410;8.232;2024-02-28T05:42:18;16.40;;;10.00;;
79464;SDS011;68932;47.410;8.232;2024-02-28T05:44:46;17.30;;;9.70;;
79464;SDS011;68932;47.410;8.232;2024-02-28T05:47:14;14.20;;;9.40;;
79464;SDS011;68932;47.410;8.232;2024-02-28T05:49:43;17.80;;;10.10;;
79464;SDS011;68932;47.410;8.232;2024-02-28T05:52:11;15.40;;;9.60;;
79464;SDS011;68932;47.410;8.232;2024-02-28T05:54:39;18.30;;;10.90;;
79464;SDS011;68932;47.410;8.232;2024-02-28T05:57:08;13.60;;;9.20;;
79464;SDS011;68932;47.410;8.232;2024-02-28T05:59:36;17.10;;;9.80;;
79464;SDS011;68932;47.410;8.232;2024-02-28T06:02:05;13.80;;;9.20;;
79464;SDS011;68932;47.410;8.232;2024-02-28T06:04:33;16.30;;;10.60;;
79464;SDS011;68932;47.410;8.232;2024-02-28T06:07:01;15.30;;;9.50;;
79464;SDS011;68932;47.410;8.232;2024-02-28T06:09:30;14.30;;;10.00;;
79464;SDS011;68932;47.410;8.232;2024-02-28T06:11:58;17.00;;;10.70;;
79464;SDS011;68932;47.410;8.232;2024-02-28T06:14:26;16.80;;;9.80;;
79464;SDS011;68932;47.410;8.232;2024-02-28T06:16:54;13.30;;;9.30;;
79464;SDS011;68932;47.410;8.232;2024-02-28T06:19:23;15.00;;;10.10;;
79464;SDS011;68932;47.410;8.232;2024-02-28T06:21:51;14.90;;;9.60;;
79464;SDS011;68932;47.410;8.232;2024-02-28T06:24:19;14.30;;;9.00;;
79464;SDS011;68932;47.410;8.232;2024-02-28T06:26:48;17.40;;;9.20;;
79464;SDS011;68932;47.410;8.232;2024-02-28T06:29:16;13.20;;;8.30;;
79464;SDS011;68932;47.410;8.232;2024-02-28T06:31:44;14.50;;;8.70;;
79464;SDS011;68932;47.410;8.232;2024-02-28T06:34:16;15.40;;;9.20;;
79464;SDS011;68932;47.410;8.232;2024-02-28T06:36:44;14.60;;;9.30;;
79464;SDS011;68932;47.410;8.232;2024-02-28T06:39:12;15.60;;;10.30;;
79464;SDS011;68932;47.410;8.232;2024-02-28T06:41:40;15.60;;;8.40;;
79464;SDS011;68932;47.410;8.232;2024-02-28T06:44:08;16.00;;;9.60;;
79464;SDS011;68932;47.410;8.232;2024-02-28T06:46:37;14.50;;;9.80;;
79464;SDS011;68932;47.410;8.232;2024-02-28T06:49:05;15.00;;;9.70;;
79464;SDS011;68932;47.410;8.232;2024-02-28T06:51:33;16.90;;;10.10;;
79464;SDS011;68932;47.410;8.232;2024-02-28T06:54:02;14.20;;;9.50;;
79464;SDS011;68932;47.410;8.232;2024-02-28T06:56:30;14.50;;;10.50;;
79464;SDS011;68932;47.410;8.232;2024-02-28T06:58:59;15.50;;;9.80;;
79464;SDS011;68932;47.410;8.232;2024-02-28T07:01:27;14.60;;;9.00;;
79464;SDS011;68932;47.410;8.232;2024-02-28T07:03:55;14.10;;;8.80;;
79464;SDS011;68932;47.410;8.232;2024-02-28T07:06:23;15.80;;;9.70;;
79464;SDS011;68932;47.410;8.232;2024-02-28T07:08:52;13.90;;;9.70;;
79464;SDS011;68932;47.410;8.232;2024-02-28T07:11:20;15.40;;;9.30;;
79464;SDS011;68932;47.410;8.232;2024-02-28T07:13:48;14.90;;;9.20;;
79464;SDS011;68932;47.410;8.232;2024-02-28T07:16:16;16.20;;;10.50;;
79464;SDS011;68932;47.410;8.232;2024-02-28T07:18:45;17.20;;;10.60;;
79464;SDS011;68932;47.410;8.232;2024-02-28T07:21:13;16.30;;;9.40;;
79464;SDS011;68932;47.410;8.232;2024-02-28T07:23:41;13.70;;;8.90;;
79464;SDS011;68932;47.410;8.232;2024-02-28T07:26:13;14.70;;;9.10;;
79464;SDS011;68932;47.410;8.232;2024-02-28T07:28:42;18.00;;;9.70;;
79464;SDS011;68932;47.410;8.232;2024-02-28T07:31:15;16.60;;;9.10;;
79464;SDS011;68932;47.410;8.232;2024-02-28T07:33:44;13.70;;;9.20;;
79464;SDS011;68932;47.410;8.232;2024-02-28T07:36:13;16.30;;;9.80;;
79464;SDS011;68932;47.410;8.232;2024-02-28T07:38:42;15.80;;;9.20;;
79464;SDS011;68932;47.410;8.232;2024-02-28T07:41:10;16.90;;;9.70;;
79464;SDS011;68932;47.410;8.232;2024-02-28T07:43:41;14.90;;;10.00;;
79464;SDS011;68932;47.410;8.232;2024-02-28T07:46:10;16.30;;;9.90;;
79464;SDS011;68932;47.410;8.232;2024-02-28T07:48:38;15.40;;;10.40;;
79464;SDS011;68932;47.410;8.232;2024-02-28T07:51:07;17.00;;;9.70;;
79464;SDS011;68932;47.410;8.232;2024-02-28T07:53:35;16.40;;;10.40;;
79464;SDS011;68932;47.410;8.232;2024-02-28T07:56:03;16.60;;;10.00;;
79464;SDS011;68932;47.410;8.232;2024-02-28T07:58:32;14.60;;;9.30;;
79464;SDS011;68932;47.410;8.232;2024-02-28T08:01:00;15.80;;;9.60;;
79464;SDS011;68932;47.410;8.232;2024-02-28T08:03:28;16.10;;;9.60;;
79464;SDS011;68932;47.410;8.232;2024-02-28T08:05:56;16.40;;;10.20;;
79464;SDS011;68932;47.410;8.232;2024-02-28T08:08:24;15.30;;;9.30;;
79464;SDS011;68932;47.410;8.232;2024-02-28T08:10:53;18.20;;;9.70;;
79464;SDS011;68932;47.410;8.232;2024-02-28T08:13:21;19.50;;;9.00;;
79464;SDS011;68932;47.410;8.232;2024-02-28T08:15:49;15.60;;;8.80;;
79464;SDS011;68932;47.410;8.232;2024-02-28T08:18:17;15.90;;;10.10;;
79464;SDS011;68932;47.410;8.232;2024-02-28T08:20:45;15.90;;;10.70;;
79464;SDS011;68932;47.410;8.232;2024-02-28T08:23:14;13.40;;;9.10;;
79464;SDS011;68932;47.410;8.232;2024-02-28T08:25:42;15.80;;;9.90;;
79464;SDS011;68932;47.410;8.232;2024-02-28T08:28:10;16.40;;;11.10;;
79464;SDS011;68932;47.410;8.232;2024-02-28T08:30:39;17.30;;;10.40;;
79464;SDS011;68932;47.410;8.232;2024-02-28T08:33:07;18.60;;;10.50;;
79464;SDS011;68932;47.410;8.232;2024-02-28T08:35:35;17.50;;;10.60;;
79464;SDS011;68932;47.410;8.232;2024-02-28T08:38:04;17.00;;;10.80;;
79464;SDS011;68932;47.410;8.232;2024-02-28T08:40:33;19.20;;;10.00;;
79464;SDS011;68932;47.410;8.232;2024-02-28T08:43:02;18.50;;;10.80;;
79464;SDS011;68932;47.410;8.232;2024-02-28T08:45:30;17.10;;;9.80;;
79464;SDS011;68932;47.410;8.232;2024-02-28T08:47:59;16.10;;;9.50;;
79464;SDS011;68932;47.410;8.232;2024-02-28T08:50:27;18.20;;;12.20;;
79464;SDS011;68932;47.410;8.232;2024-02-28T08:52:55;19.00;;;11.00;;
79464;SDS011;68932;47.410;8.232;2024-02-28T08:55:23;17.30;;;10.20;;
79464;SDS011;68932;47.410;8.232;2024-02-28T08:57:51;17.90;;;11.10;;
79464;SDS011;68932;47.410;8.232;2024-02-28T09:00:20;16.30;;;10.20;;
79464;SDS011;68932;47.410;8.232;2024-02-28T09:02:48;16.40;;;10.80;;
79464;SDS011;68932;47.410;8.232;2024-02-28T09:05:16;17.80;;;10.80;;
79464;SDS011;68932;47.410;8.232;2024-02-28T09:07:44;17.00;;;9.90;;
79464;SDS011;68932;47.410;8.232;2024-02-28T09:10:13;19.10;;;9.90;;
79464;SDS011;68932;47.410;8.232;2024-02-28T09:12:41;20.00;;;10.90;;
79464;SDS011;68932;47.410;8.232;2024-02-28T09:15:09;16.20;;;9.50;;
79464;SDS011;68932;47.410;8.232;2024-02-28T09:17:37;15.60;;;10.00;;
79464;SDS011;68932;47.410;8.232;2024-02-28T09:20:07;17.60;;;10.90;;
79464;SDS011;68932;47.410;8.232;2024-02-28T09:22:36;18.60;;;11.20;;
79464;SDS011;68932;47.410;8.232;2024-02-28T09:25:05;19.90;;;10.40;;
79464;SDS011;68932;47.410;8.232;2024-02-28T09:27:34;18.00;;;10.40;;
79464;SDS011;68932;47.410;8.232;2024-02-28T09:30:03;15.90;;;9.80;;
79464;SDS011;68932;47.410;8.232;2024-02-28T09:32:33;16.00;;;10.40;;
79464;SDS011;68932;47.410;8.232;2024-02-28T09:35:01;17.30;;;10.60;;
79464;SDS011;68932;47.410;8.232;2024-02-28T09:37:30;16.20;;;10.50;;
79464;SDS011;68932;47.410;8.232;2024-02-28T09:39:58;19.00;;;10.20;;
79464;SDS011;68932;47.410;8.232;2024-02-28T09:42:27;17.80;;;9.90;;
79464;SDS011;68932;47.410;8.232;2024-02-28T09:44:55;16.10;;;10.40;;
79464;SDS011;68932;47.410;8.232;2024-02-28T09:47:26;14.00;;;9.10;;
79464;SDS011;68932;47.410;8.232;2024-02-28T09:49:55;14.80;;;9.30;;
79464;SDS011;68932;47.410;8.232;2024-02-28T09:52:24;17.40;;;9.10;;
79464;SDS011;68932;47.410;8.232;2024-02-28T09:54:53;16.60;;;9.60;;
79464;SDS011;68932;47.410;8.232;2024-02-28T09:57:21;17.00;;;9.60;;
79464;SDS011;68932;47.410;8.232;2024-02-28T09:59:51;13.60;;;8.10;;
79464;SDS011;68932;47.410;8.232;2024-02-28T10:02:20;16.70;;;9.50;;
79464;SDS011;68932;47.410;8.232;2024-02-28T10:04:49;19.40;;;11.00;;
79464;SDS011;68932;47.410;8.232;2024-02-28T10:07:18;17.70;;;9.80;;
79464;SDS011;68932;47.410;8.232;2024-02-28T10:09:46;16.00;;;9.50;;
79464;SDS011;68932;47.410;8.232;2024-02-28T10:12:15;14.30;;;8.70;;
79464;SDS011;68932;47.410;8.232;2024-02-28T10:14:43;17.50;;;10.10;;
79464;SDS011;68932;47.410;8.232;2024-02-28T10:17:11;17.10;;;9.80;;
79464;SDS011;68932;47.410;8.232;2024-02-28T10:19:39;14.00;;;8.20;;
79464;SDS011;68932;47.410;8.232;2024-02-28T10:22:08;12.50;;;7.30;;
79464;SDS011;68932;47.410;8.232;2024-02-28T10:24:36;15.00;;;9.90;;
79464;SDS011;68932;47.410;8.232;2024-02-28T10:27:04;14.00;;;9.00;;
79464;SDS011;68932;47.410;8.232;2024-02-28T10:29:32;15.00;;;9.50;;
79464;SDS011;68932;47.410;8.232;2024-02-28T10:32:01;18.60;;;9.30;;
79464;SDS011;68932;47.410;8.232;2024-02-28T10:34:29;16.20;;;9.40;;
79464;SDS011;68932;47.410;8.232;2024-02-28T10:36:59;14.70;;;9.90;;
79464;SDS011;68932;47.410;8.232;2024-02-28T10:39:27;18.00;;;10.80;;
79464;SDS011;68932;47.410;8.232;2024-02-28T10:41:58;15.50;;;9.20;;
79464;SDS011;68932;47.410;8.232;2024-02-28T10:44:28;16.10;;;8.70;;
79464;SDS011;68932;47.410;8.232;2024-02-28T10:46:58;13.70;;;8.80;;
79464;SDS011;68932;47.410;8.232;2024-02-28T10:49:27;16.60;;;9.40;;
79464;SDS011;68932;47.410;8.232;2024-02-28T10:51:56;15.70;;;10.50;;
79464;SDS011;68932;47.410;8.232;2024-02-28T10:54:25;17.90;;;10.60;;
79464;SDS011;68932;47.410;8.232;2024-02-28T10:56:57;20.70;;;10.30;;
79464;SDS011;68932;47.410;8.232;2024-02-28T10:59:26;15.80;;;9.50;;
79464;SDS011;68932;47.410;8.232;2024-02-28T11:01:56;14.00;;;9.30;;
79464;SDS011;68932;47.410;8.232;2024-02-28T11:04:24;14.80;;;9.60;;
79464;SDS011;68932;47.410;8.232;2024-02-28T11:06:53;13.90;;;9.10;;
79464;SDS011;68932;47.410;8.232;2024-02-28T11:09:22;14.60;;;8.80;;
79464;SDS011;68932;47.410;8.232;2024-02-28T11:11:52;15.30;;;9.50;;
79464;SDS011;68932;47.410;8.232;2024-02-28T11:14:21;14.90;;;8.80;;
79464;SDS011;68932;47.410;8.232;2024-02-28T11:17:00;16.70;;;9.00;;
79464;SDS011;68932;47.410;8.232;2024-02-28T11:19:29;16.40;;;9.70;;
79464;SDS011;68932;47.410;8.232;2024-02-28T11:21:58;16.60;;;9.10;;
79464;SDS011;68932;47.410;8.232;2024-02-28T11:24:30;15.40;;;9.00;;
79464;SDS011;68932;47.410;8.232;2024-02-28T11:26:59;17.90;;;9.30;;
79464;SDS011;68932;47.410;8.232;2024-02-28T11:29:28;12.20;;;8.10;;
79464;SDS011;68932;47.410;8.232;2024-02-28T11:31:56;15.40;;;9.40;;
79464;SDS011;68932;47.410;8.232;2024-02-28T11:34:25;15.40;;;9.60;;
79464;SDS011;68932;47.410;8.232;2024-02-28T11:36:53;14.60;;;9.20;;
79464;SDS011;68932;47.410;8.232;2024-02-28T11:39:22;16.30;;;10.20;;
79464;SDS011;68932;47.410;8.232;2024-02-28T11:41:50;13.10;;;7.90;;
79464;SDS011;68932;47.410;8.232;2024-02-28T11:44:18;15.20;;;9.80;;
79464;SDS011;68932;47.410;8.232;2024-02-28T11:46:48;19.40;;;10.80;;
79464;SDS011;68932;47.410;8.232;2024-02-28T11:49:17;16.90;;;9.60;;
79464;SDS011;68932;47.410;8.232;2024-02-28T11:51:45;19.30;;;10.00;;
79464;SDS011;68932;47.410;8.232;2024-02-28T11:54:13;14.50;;;9.00;;
79464;SDS011;68932;47.410;8.232;2024-02-28T11:56:42;15.30;;;8.90;;
79464;SDS011;68932;47.410;8.232;2024-02-28T11:59:10;14.80;;;9.50;;
79464;SDS011;68932;47.410;8.232;2024-02-28T12:01:40;16.40;;;9.40;;
79464;SDS011;68932;47.410;8.232;2024-02-28T12:04:09;19.90;;;11.30;;
79464;SDS011;68932;47.410;8.232;2024-02-28T12:06:37;17.50;;;9.70;;
79464;SDS011;68932;47.410;8.232;2024-02-28T12:09:07;17.50;;;10.20;;
79464;SDS011;68932;47.410;8.232;2024-02-28T12:11:36;17.20;;;10.60;;
79464;SDS011;68932;47.410;8.232;2024-02-28T12:14:05;17.50;;;10.30;;
79464;SDS011;68932;47.410;8.232;2024-02-28T12:16:35;18.70;;;11.40;;
79464;SDS011;68932;47.410;8.232;2024-02-28T12:19:04;18.10;;;11.80;;
79464;SDS011;68932;47.410;8.232;2024-02-28T12:21:35;15.70;;;10.40;;
79464;SDS011;68932;47.410;8.232;2024-02-28T12:24:04;16.00;;;9.90;;
79464;SDS011;68932;47.410;8.232;2024-02-28T12:26:34;16.60;;;10.00;;
79464;SDS011;68932;47.410;8.232;2024-02-28T12:29:02;15.70;;;9.60;;
79464;SDS011;68932;47.410;8.232;2024-02-28T12:31:30;19.40;;;10.20;;
79464;SDS011;68932;47.410;8.232;2024-02-28T12:33:59;17.80;;;10.40;;
79464;SDS011;68932;47.410;8.232;2024-02-28T12:36:27;14.90;;;8.60;;
79464;SDS011;68932;47.410;8.232;2024-02-28T12:38:55;17.50;;;9.90;;
79464;SDS011;68932;47.410;8.232;2024-02-28T12:41:24;15.00;;;8.70;;
79464;SDS011;68932;47.410;8.232;2024-02-28T12:43:52;16.80;;;10.70;;
79464;SDS011;68932;47.410;8.232;2024-02-28T12:46:20;17.40;;;10.10;;
79464;SDS011;68932;47.410;8.232;2024-02-28T12:48:49;18.20;;;10.10;;
79464;SDS011;68932;47.410;8.232;2024-02-28T12:51:36;17.00;;;9.80;;
79464;SDS011;68932;47.410;8.232;2024-02-28T12:54:06;15.40;;;9.30;;
79464;SDS011;68932;47.410;8.232;2024-02-28T12:56:35;16.40;;;9.70;;
79464;SDS011;68932;47.410;8.232;2024-02-28T12:59:03;14.60;;;8.10;;
79464;SDS011;68932;47.410;8.232;2024-02-28T13:01:32;17.70;;;11.50;;
79464;SDS011;68932;47.410;8.232;2024-02-28T13:04:01;22.00;;;11.90;;
79464;SDS011;68932;47.410;8.232;2024-02-28T13:06:29;17.30;;;10.20;;
79464;SDS011;68932;47.410;8.232;2024-02-28T13:08:58;17.20;;;10.20;;
79464;SDS011;68932;47.410;8.232;2024-02-28T13:11:26;18.10;;;10.90;;
79464;SDS011;68932;47.410;8.232;2024-02-28T13:13:54;18.30;;;10.90;;
79464;SDS011;68932;47.410;8.232;2024-02-28T13:16:23;17.70;;;11.20;;
79464;SDS011;68932;47.410;8.232;2024-02-28T13:18:51;17.10;;;10.80;;
79464;SDS011;68932;47.410;8.232;2024-02-28T13:21:19;15.50;;;9.40;;
79464;SDS011;68932;47.410;8.232;2024-02-28T13:23:47;17.70;;;10.80;;
79464;SDS011;68932;47.410;8.232;2024-02-28T13:26:15;17.60;;;10.20;;
79464;SDS011;68932;47.410;8.232;2024-02-28T13:28:44;18.00;;;11.60;;
79464;SDS011;68932;47.410;8.232;2024-02-28T13:31:13;17.30;;;9.80;;
79464;SDS011;68932;47.410;8.232;2024-02-28T13:33:41;19.30;;;9.30;;
79464;SDS011;68932;47.410;8.232;2024-02-28T13:36:10;15.90;;;10.10;;
79464;SDS011;68932;47.410;8.232;2024-02-28T13:38:38;16.80;;;9.80;;
79464;SDS011;68932;47.410;8.232;2024-02-28T13:41:06;20.20;;;10.10;;
79464;SDS011;68932;47.410;8.232;2024-02-28T13:43:34;15.20;;;9.90;;
79464;SDS011;68932;47.410;8.232;2024-02-28T13:46:03;17.90;;;11.60;;
79464;SDS011;68932;47.410;8.232;2024-02-28T13:48:31;14.00;;;8.30;;
79464;SDS011;68932;47.410;8.232;2024-02-28T13:50:59;17.10;;;9.60;;
79464;SDS011;68932;47.410;8.232;2024-02-28T13:53:28;16.70;;;10.10;;
79464;SDS011;68932;47.410;8.232;2024-02-28T13:55:56;16.30;;;9.80;;
79464;SDS011;68932;47.410;8.232;2024-02-28T13:58:26;17.50;;;9.60;;
79464;SDS011;68932;47.410;8.232;2024-02-28T14:00:54;16.40;;;9.60;;
79464;SDS011;68932;47.410;8.232;2024-02-28T14:03:22;18.90;;;10.40;;
79464;SDS011;68932;47.410;8.232;2024-02-28T14:05:51;17.40;;;10.00;;
79464;SDS011;68932;47.410;8.232;2024-02-28T14:08:19;15.30;;;8.90;;
79464;SDS011;68932;47.410;8.232;2024-02-28T14:10:47;17.00;;;10.00;;
79464;SDS011;68932;47.410;8.232;2024-02-28T14:13:16;14.70;;;8.80;;
79464;SDS011;68932;47.410;8.232;2024-02-28T14:15:44;16.90;;;10.20;;
79464;SDS011;68932;47.410;8.232;2024-02-28T14:18:13;16.50;;;10.40;;
79464;SDS011;68932;47.410;8.232;2024-02-28T14:20:41;18.00;;;10.60;;
79464;SDS011;68932;47.410;8.232;2024-02-28T14:23:09;19.40;;;10.10;;
79464;SDS011;68932;47.410;8.232;2024-02-28T14:25:38;17.10;;;9.30;;
79464;SDS011;68932;47.410;8.232;2024-02-28T14:28:06;17.50;;;10.40;;
79464;SDS011;68932;47.410;8.232;2024-02-28T14:30:34;17.10;;;10.70;;
79464;SDS011;68932;47.410;8.232;2024-02-28T14:33:03;15.00;;;9.20;;